createdAt,value
2023-05-05T00:00:52.347Z,0.00
2023-05-05T00:01:52.341Z,0.00
2023-05-05T00:02:52.350Z,0.00
2023-05-05T00:03:52.378Z,0.00
2023-05-05T00:04:52.274Z,0.00
2023-05-05T00:05:52.319Z,0.00
2023-05-05T00:06:52.263Z,0.00
2023-05-05T00:07:52.255Z,0.00
2023-05-05T00:08:52.235Z,0.00
2023-05-05T00:09:52.227Z,0.00
2023-05-05T00:10:52.255Z,0.00
2023-05-05T00:11:52.205Z,0.00
2023-05-05T00:12:52.242Z,0.00
2023-05-05T00:13:52.194Z,0.00
2023-05-05T00:14:52.232Z,0.00
2023-05-05T00:15:52.201Z,0.00
2023-05-05T00:16:52.185Z,0.00
2023-05-05T00:17:52.228Z,0.00
2023-05-05T00:18:52.136Z,0.00
2023-05-05T00:19:52.115Z,0.00
2023-05-05T00:20:52.362Z,0.00
2023-05-05T00:21:52.122Z,0.00
2023-05-05T00:22:52.082Z,0.00
2023-05-05T00:23:52.085Z,0.00
2023-05-05T00:24:52.102Z,0.00
2023-05-05T00:25:52.057Z,0.00
2023-05-05T00:26:52.052Z,0.00
2023-05-05T00:27:52.069Z,0.00
2023-05-05T00:28:52.047Z,0.00
2023-05-05T00:29:52.036Z,0.00
2023-05-05T00:30:52.060Z,0.00
2023-05-05T00:31:52.016Z,0.00
2023-05-05T00:32:52.016Z,0.00
2023-05-05T00:33:52.017Z,0.00
2023-05-05T00:34:51.961Z,0.00
2023-05-05T00:35:51.966Z,0.00
2023-05-05T00:36:51.990Z,0.00
2023-05-05T00:37:51.940Z,0.00
2023-05-05T00:38:51.969Z,0.00
2023-05-05T00:39:51.914Z,0.00
2023-05-05T00:40:51.938Z,0.00
2023-05-05T00:41:51.897Z,0.00
2023-05-05T00:42:51.889Z,0.00
2023-05-05T00:43:51.888Z,0.00
2023-05-05T00:44:51.892Z,0.00
2023-05-05T00:45:51.849Z,0.00
2023-05-05T00:46:51.864Z,0.00
2023-05-05T00:47:51.874Z,0.00
2023-05-05T00:48:51.860Z,0.00
2023-05-05T00:49:51.840Z,0.00
2023-05-05T00:50:51.813Z,0.00
2023-05-05T00:51:51.799Z,0.00
2023-05-05T00:52:51.796Z,0.00
2023-05-05T00:53:51.787Z,0.00
2023-05-05T00:54:51.751Z,0.00
2023-05-05T00:55:51.771Z,0.00
2023-05-05T00:56:51.746Z,0.00
2023-05-05T00:57:51.736Z,0.00
2023-05-05T00:58:51.713Z,0.00
2023-05-05T00:59:51.711Z,0.00
2023-05-05T01:00:51.703Z,0.00
2023-05-05T01:01:51.743Z,0.00
2023-05-05T01:02:51.717Z,0.00
2023-05-05T01:03:51.738Z,0.00
2023-05-05T01:04:51.656Z,0.00
2023-05-05T01:05:51.657Z,0.00
2023-05-05T01:06:51.643Z,0.00
2023-05-05T01:07:51.619Z,0.00
2023-05-05T01:08:51.603Z,0.00
2023-05-05T01:10:00.898Z,0.00
2023-05-05T01:10:51.607Z,0.00
2023-05-05T01:11:51.609Z,0.00
2023-05-05T01:12:51.603Z,0.00
2023-05-05T01:13:51.557Z,0.00
2023-05-05T01:14:51.550Z,0.00
2023-05-05T01:15:51.570Z,0.00
2023-05-05T01:16:51.528Z,0.00
2023-05-05T01:17:51.591Z,0.00
2023-05-05T01:18:51.503Z,0.00
2023-05-05T01:19:51.485Z,0.00
2023-05-05T01:20:51.565Z,0.00
2023-05-05T01:21:51.482Z,0.00
2023-05-05T01:22:52.329Z,0.00
2023-05-05T01:23:51.449Z,0.00
2023-05-05T01:24:51.581Z,0.00
2023-05-05T01:25:51.761Z,0.00
2023-05-05T01:26:51.436Z,0.00
2023-05-05T01:27:51.406Z,0.00
2023-05-05T01:28:51.406Z,0.00
2023-05-05T01:29:51.414Z,0.00
2023-05-05T01:30:51.373Z,0.00
2023-05-05T01:31:51.454Z,0.00
2023-05-05T01:32:51.390Z,0.00
2023-05-05T01:33:51.347Z,0.00
2023-05-05T01:34:51.399Z,0.00
2023-05-05T01:35:51.315Z,0.00
2023-05-05T01:36:51.308Z,0.00
2023-05-05T01:37:51.443Z,0.00
2023-05-05T01:38:51.310Z,0.00
2023-05-05T01:39:51.307Z,0.00
2023-05-05T01:40:51.276Z,0.00
2023-05-05T01:41:51.270Z,0.00
2023-05-05T01:42:51.254Z,0.00
2023-05-05T01:43:51.270Z,0.00
2023-05-05T01:44:51.229Z,0.00
2023-05-05T01:45:51.269Z,0.00
2023-05-05T01:46:51.217Z,0.00
2023-05-05T01:47:51.227Z,0.00
2023-05-05T01:48:51.199Z,0.00
2023-05-05T01:49:51.182Z,0.00
2023-05-05T01:50:51.171Z,0.00
2023-05-05T01:51:51.158Z,0.00
2023-05-05T01:52:51.194Z,0.00
2023-05-05T01:53:51.121Z,0.00
2023-05-05T01:54:51.147Z,0.00
2023-05-05T01:55:51.139Z,0.00
2023-05-05T01:56:51.098Z,0.00
2023-05-05T01:57:51.092Z,0.00
2023-05-05T01:58:51.114Z,0.00
2023-05-05T01:59:51.098Z,0.00
2023-05-05T02:00:51.115Z,0.00
2023-05-05T02:01:51.054Z,0.00
2023-05-05T02:02:51.175Z,0.00
2023-05-05T02:03:51.011Z,0.00
2023-05-05T02:04:51.142Z,0.00
2023-05-05T02:05:50.998Z,0.00
2023-05-05T02:06:51.013Z,0.00
2023-05-05T02:07:50.987Z,0.00
2023-05-05T02:08:50.970Z,0.00
2023-05-05T02:09:50.961Z,0.00
2023-05-05T02:10:51.060Z,0.00
2023-05-05T02:11:50.961Z,0.00
2023-05-05T02:12:50.988Z,0.00
2023-05-05T02:13:50.952Z,0.00
2023-05-05T02:14:50.917Z,0.00
2023-05-05T02:15:51.027Z,0.00
2023-05-05T02:16:50.888Z,0.00
2023-05-05T02:17:50.901Z,0.00
2023-05-05T02:18:50.871Z,0.00
2023-05-05T02:19:50.862Z,0.00
2023-05-05T02:20:50.864Z,0.00
2023-05-05T02:21:50.859Z,0.00
2023-05-05T02:22:50.891Z,0.00
2023-05-05T02:23:50.805Z,0.00
2023-05-05T02:24:50.811Z,0.00
2023-05-05T02:25:50.804Z,0.00
2023-05-05T02:26:50.788Z,0.00
2023-05-05T02:27:50.778Z,0.00
2023-05-05T02:28:50.759Z,0.00
2023-05-05T02:29:50.770Z,0.00
2023-05-05T02:30:50.773Z,0.00
2023-05-05T02:31:50.843Z,0.00
2023-05-05T02:32:50.774Z,0.00
2023-05-05T02:33:50.709Z,0.00
2023-05-05T02:34:50.743Z,0.00
2023-05-05T02:35:50.689Z,0.00
2023-05-05T02:36:50.678Z,0.00
2023-05-05T02:37:50.661Z,0.00
2023-05-05T02:38:50.672Z,0.00
2023-05-05T02:39:50.677Z,0.00
2023-05-05T02:40:50.629Z,0.00
2023-05-05T02:41:50.613Z,0.00
2023-05-05T02:42:50.665Z,0.00
2023-05-05T02:43:50.614Z,0.00
2023-05-05T02:44:50.599Z,0.00
2023-05-05T02:45:50.645Z,0.00
2023-05-05T02:46:50.611Z,0.00
2023-05-05T02:47:50.571Z,0.00
2023-05-05T02:48:50.546Z,0.00
2023-05-05T02:49:50.528Z,0.00
2023-05-05T02:50:50.532Z,0.00
2023-05-05T02:51:50.509Z,0.00
2023-05-05T02:52:50.561Z,0.00
2023-05-05T02:53:50.494Z,0.00
2023-05-05T02:54:50.478Z,0.00
2023-05-05T02:55:50.471Z,0.00
2023-05-05T02:56:50.422Z,1.00
2023-05-05T02:57:50.398Z,1.00
2023-05-05T02:58:50.577Z,0.00
2023-05-05T02:59:50.455Z,0.00
2023-05-05T03:00:50.445Z,0.00
2023-05-05T03:01:50.486Z,0.00
2023-05-05T03:02:50.492Z,1.00
2023-05-05T03:03:50.441Z,1.00
2023-05-05T03:04:50.370Z,0.00
2023-05-05T03:05:50.368Z,0.00
2023-05-05T03:06:50.317Z,1.00
2023-05-05T03:07:50.301Z,1.00
2023-05-05T03:08:50.295Z,1.00
2023-05-05T03:09:50.275Z,6.00
2023-05-05T03:10:50.249Z,5.00
2023-05-05T03:11:50.243Z,5.00
2023-05-05T03:12:50.277Z,6.00
2023-05-05T03:13:50.218Z,6.00
2023-05-05T03:14:50.215Z,4.00
2023-05-05T03:15:50.203Z,7.00
2023-05-05T03:16:50.216Z,12.00
2023-05-05T03:17:50.225Z,12.00
2023-05-05T03:18:50.175Z,16.00
2023-05-05T03:19:50.181Z,16.00
2023-05-05T03:20:50.146Z,14.00
2023-05-05T03:21:50.160Z,17.00
2023-05-05T03:22:50.134Z,20.00
2023-05-05T03:23:50.113Z,22.00
2023-05-05T03:24:50.110Z,26.00
2023-05-05T03:25:50.120Z,29.00
2023-05-05T03:26:50.110Z,30.00
2023-05-05T03:27:50.088Z,34.00
2023-05-05T03:28:50.072Z,37.00
2023-05-05T03:29:50.046Z,39.00
2023-05-05T03:30:50.049Z,42.00
2023-05-05T03:31:50.145Z,48.00
2023-05-05T03:32:50.069Z,56.00
2023-05-05T03:33:50.020Z,57.00
2023-05-05T03:34:50.025Z,55.00
2023-05-05T03:35:50.017Z,61.00
2023-05-05T03:36:49.975Z,65.00
2023-05-05T03:37:49.983Z,72.00
2023-05-05T03:38:49.953Z,75.00
2023-05-05T03:39:49.971Z,80.00
2023-05-05T03:40:49.964Z,87.00
2023-05-05T03:41:49.922Z,86.00
2023-05-05T03:42:49.977Z,96.00
2023-05-05T03:43:49.938Z,101.00
2023-05-05T03:44:49.923Z,105.00
2023-05-05T03:45:49.958Z,104.00
2023-05-05T03:46:49.872Z,112.00
2023-05-05T03:47:49.912Z,126.00
2023-05-05T03:48:49.849Z,126.00
2023-05-05T03:49:49.852Z,129.00
2023-05-05T03:50:49.825Z,133.00
2023-05-05T03:51:49.807Z,140.00
2023-05-05T03:52:49.806Z,147.00
2023-05-05T03:53:49.791Z,152.00
2023-05-05T03:54:49.813Z,158.00
2023-05-05T03:55:49.785Z,164.00
2023-05-05T03:56:49.780Z,172.00
2023-05-05T03:57:49.746Z,181.00
2023-05-05T03:58:49.765Z,187.00
2023-05-05T03:59:49.743Z,192.00
2023-05-05T04:00:49.750Z,197.00
2023-05-05T04:01:49.722Z,200.00
2023-05-05T04:02:49.824Z,204.00
2023-05-05T04:03:49.756Z,214.00
2023-05-05T04:04:49.693Z,227.00
2023-05-05T04:05:49.684Z,230.00
2023-05-05T04:06:49.675Z,238.00
2023-05-05T04:07:49.656Z,243.00
2023-05-05T04:08:49.655Z,250.00
2023-05-05T04:09:49.630Z,243.00
2023-05-05T04:10:49.656Z,210.00
2023-05-05T04:11:49.620Z,191.00
2023-05-05T04:12:49.728Z,282.00
2023-05-05T04:13:49.898Z,339.00
2023-05-05T04:14:49.583Z,332.00
2023-05-05T04:15:49.613Z,282.00
2023-05-05T04:16:49.565Z,325.00
2023-05-05T04:17:49.586Z,311.00
2023-05-05T04:18:49.588Z,291.00
2023-05-05T04:19:49.565Z,320.00
2023-05-05T04:20:49.528Z,342.00
2023-05-05T04:21:49.516Z,375.00
2023-05-05T04:22:51.413Z,365.00
2023-05-05T04:23:49.488Z,400.00
2023-05-05T04:24:50.511Z,266.00
2023-05-05T04:25:49.458Z,292.00
2023-05-05T04:26:49.464Z,187.00
2023-05-05T04:27:49.499Z,316.00
2023-05-05T04:28:49.445Z,395.00
2023-05-05T04:29:49.424Z,415.00
2023-05-05T04:30:49.418Z,370.00
2023-05-05T04:31:49.611Z,278.00
2023-05-05T04:32:49.448Z,257.00
2023-05-05T04:33:49.377Z,352.00
2023-05-05T04:34:49.366Z,381.00
2023-05-05T04:35:49.375Z,339.00
2023-05-05T04:36:49.395Z,353.00
2023-05-05T04:37:49.323Z,364.00
2023-05-05T04:38:49.352Z,388.00
2023-05-05T04:39:49.353Z,391.00
2023-05-05T04:40:49.321Z,419.00
2023-05-05T04:41:49.312Z,435.00
2023-05-05T04:42:49.290Z,439.00
2023-05-05T04:43:49.290Z,415.00
2023-05-05T04:44:49.260Z,432.00
2023-05-05T04:45:49.316Z,458.00
2023-05-05T04:46:49.299Z,573.00
2023-05-05T04:47:49.272Z,422.00
2023-05-05T04:48:49.292Z,389.00
2023-05-05T04:49:49.275Z,510.00
2023-05-05T04:50:49.215Z,563.00
2023-05-05T04:51:49.203Z,569.00
2023-05-05T04:52:50.782Z,523.00
2023-05-05T04:53:49.160Z,405.00
2023-05-05T04:54:49.227Z,776.00
2023-05-05T04:55:49.294Z,254.00
2023-05-05T04:56:49.148Z,730.00
2023-05-05T04:57:49.127Z,425.00
2023-05-05T04:58:49.134Z,434.00
2023-05-05T04:59:49.106Z,465.00
2023-05-05T05:00:49.107Z,371.00
2023-05-05T05:01:49.150Z,951.00
2023-05-05T05:02:49.153Z,843.00
2023-05-05T05:03:49.114Z,410.00
2023-05-05T05:04:49.071Z,289.00
2023-05-05T05:05:49.035Z,661.00
2023-05-05T05:06:49.035Z,573.00
2023-05-05T05:07:49.031Z,590.00
2023-05-05T05:08:48.998Z,835.00
2023-05-05T05:09:49.009Z,565.00
2023-05-05T05:10:48.977Z,351.00
2023-05-05T05:11:49.010Z,577.00
2023-05-05T05:12:49.012Z,597.00
2023-05-05T05:13:48.981Z,987.00
2023-05-05T05:14:48.958Z,850.00
2023-05-05T05:15:48.951Z,323.00
2023-05-05T05:16:48.984Z,627.00
2023-05-05T05:17:48.945Z,591.00
2023-05-05T05:18:48.902Z,565.00
2023-05-05T05:19:48.914Z,690.00
2023-05-05T05:20:48.869Z,677.00
2023-05-05T05:21:48.886Z,669.00
2023-05-05T05:22:48.865Z,675.00
2023-05-05T05:23:48.902Z,690.00
2023-05-05T05:24:48.832Z,693.00
2023-05-05T05:25:48.834Z,718.00
2023-05-05T05:26:48.814Z,712.00
2023-05-05T05:27:58.520Z,724.00
2023-05-05T05:28:48.829Z,728.00
2023-05-05T05:29:48.788Z,770.00
2023-05-05T05:30:48.770Z,735.00
2023-05-05T05:31:48.772Z,757.00
2023-05-05T05:32:48.792Z,774.00
2023-05-05T05:33:48.739Z,952.00
2023-05-05T05:34:48.728Z,637.00
2023-05-05T05:35:48.715Z,791.00
2023-05-05T05:36:48.703Z,789.00
2023-05-05T05:37:48.973Z,812.00
2023-05-05T05:38:48.685Z,804.00
2023-05-05T05:39:48.671Z,815.00
2023-05-05T05:40:48.653Z,830.00
2023-05-05T05:41:48.667Z,846.00
2023-05-05T05:42:48.657Z,882.00
2023-05-05T05:43:48.618Z,830.00
2023-05-05T05:44:48.637Z,852.00
2023-05-05T05:45:48.680Z,873.00
2023-05-05T05:46:48.617Z,873.00
2023-05-05T05:47:48.637Z,858.00
2023-05-05T05:48:48.606Z,853.00
2023-05-05T05:49:48.576Z,917.00
2023-05-05T05:50:48.555Z,1125.00
2023-05-05T05:51:48.557Z,894.00
2023-05-05T05:52:48.550Z,643.00
2023-05-05T05:53:48.528Z,1384.00
2023-05-05T05:54:48.532Z,531.00
2023-05-05T05:55:48.515Z,776.00
2023-05-05T05:56:48.554Z,906.00
2023-05-05T05:57:48.489Z,925.00
2023-05-05T05:58:48.506Z,1141.00
2023-05-05T05:59:48.463Z,1139.00
2023-05-05T06:00:48.454Z,583.00
2023-05-05T06:01:48.440Z,1030.00
2023-05-05T06:02:48.550Z,984.00
2023-05-05T06:03:48.462Z,1065.00
2023-05-05T06:04:48.411Z,1061.00
2023-05-05T06:05:48.428Z,1156.00
2023-05-05T06:06:48.405Z,1170.00
2023-05-05T06:07:48.414Z,1197.00
2023-05-05T06:08:48.350Z,1291.00
2023-05-05T06:09:48.368Z,1414.00
2023-05-05T06:10:48.360Z,1337.00
2023-05-05T06:11:48.344Z,1365.00
2023-05-05T06:12:48.352Z,1697.00
2023-05-05T06:13:48.313Z,1988.00
2023-05-05T06:14:48.311Z,1738.00
2023-05-05T06:15:48.365Z,749.00
2023-05-05T06:16:55.035Z,1555.00
2023-05-05T06:17:48.313Z,1871.00
2023-05-05T06:18:48.247Z,1647.00
2023-05-05T06:19:48.254Z,2082.00
2023-05-05T06:20:48.309Z,1570.00
2023-05-05T06:21:48.237Z,1107.00
2023-05-05T06:22:48.221Z,1373.00
2023-05-05T06:23:48.227Z,1162.00
2023-05-05T06:24:48.198Z,1102.00
2023-05-05T06:25:48.280Z,1526.00
2023-05-05T06:26:48.166Z,1100.00
2023-05-05T06:27:48.215Z,1587.00
2023-05-05T06:28:48.152Z,1241.00
2023-05-05T06:29:48.180Z,1573.00
2023-05-05T06:30:48.151Z,1393.00
2023-05-05T06:31:48.170Z,1433.00
2023-05-05T06:32:48.149Z,1239.00
2023-05-05T06:33:48.120Z,929.00
2023-05-05T06:34:48.096Z,1568.00
2023-05-05T06:35:48.075Z,1516.00
2023-05-05T06:36:48.206Z,1314.00
2023-05-05T06:37:48.058Z,1527.00
2023-05-05T06:38:48.056Z,1785.00
2023-05-05T06:39:48.052Z,1557.00
2023-05-05T06:40:48.033Z,1624.00
2023-05-05T06:41:48.007Z,1802.00
2023-05-05T06:42:48.016Z,2222.00
2023-05-05T06:43:47.995Z,1524.00
2023-05-05T06:44:47.974Z,1322.00
2023-05-05T06:45:48.062Z,1874.00
2023-05-05T06:46:48.021Z,1827.00
2023-05-05T06:47:48.088Z,1981.00
2023-05-05T06:48:47.937Z,1941.00
2023-05-05T06:49:47.942Z,1577.00
2023-05-05T06:50:47.911Z,1648.00
2023-05-05T06:51:47.922Z,1464.00
2023-05-05T06:52:48.057Z,1503.00
2023-05-05T06:53:48.022Z,1705.00
2023-05-05T06:54:47.891Z,1494.00
2023-05-05T06:55:47.891Z,1766.00
2023-05-05T06:56:47.865Z,1839.00
2023-05-05T06:57:47.880Z,1909.00
2023-05-05T06:58:47.839Z,2385.00
2023-05-05T06:59:47.843Z,1787.00
2023-05-05T07:00:47.840Z,1310.00
2023-05-05T07:01:47.827Z,2203.00
2023-05-05T07:02:47.851Z,2214.00
2023-05-05T07:03:47.848Z,2205.00
2023-05-05T07:04:47.777Z,2502.00
2023-05-05T07:05:47.769Z,2563.00
2023-05-05T07:06:47.797Z,2332.00
2023-05-05T07:07:47.733Z,2411.00
2023-05-05T07:08:47.727Z,2536.00
2023-05-05T07:09:47.713Z,3065.00
2023-05-05T07:10:47.818Z,2807.00
2023-05-05T07:11:47.735Z,1633.00
2023-05-05T07:12:47.701Z,2150.00
2023-05-05T07:13:47.683Z,2466.00
2023-05-05T07:14:47.668Z,2113.00
2023-05-05T07:15:47.670Z,1951.00
2023-05-05T07:16:47.638Z,2156.00
2023-05-05T07:17:47.667Z,2079.00
2023-05-05T07:18:47.646Z,2408.00
2023-05-05T07:19:47.638Z,2223.00
2023-05-05T07:20:47.622Z,1901.00
2023-05-05T07:21:47.680Z,1992.00
2023-05-05T07:22:47.580Z,1872.00
2023-05-05T07:23:47.655Z,1953.00
2023-05-05T07:24:48.623Z,1913.00
2023-05-05T07:25:47.594Z,1967.00
2023-05-05T07:26:47.538Z,1964.00
2023-05-05T07:27:47.565Z,1930.00
2023-05-05T07:28:47.548Z,2129.00
2023-05-05T07:29:47.506Z,2063.00
2023-05-05T07:30:47.578Z,1966.00
2023-05-05T07:31:47.579Z,2060.00
2023-05-05T07:32:47.509Z,1996.00
2023-05-05T07:33:47.485Z,2098.00
2023-05-05T07:34:47.545Z,1986.00
2023-05-05T07:35:47.494Z,1894.00
2023-05-05T07:36:47.446Z,1993.00
2023-05-05T07:37:47.440Z,1915.00
2023-05-05T07:38:47.414Z,2304.00
2023-05-05T07:39:47.460Z,1726.00
2023-05-05T07:40:47.388Z,2313.00
2023-05-05T07:41:47.376Z,2350.00
2023-05-05T07:42:47.576Z,1503.00
2023-05-05T07:43:47.444Z,2184.00
2023-05-05T07:44:47.447Z,2484.00
2023-05-05T07:45:47.353Z,2049.00
2023-05-05T07:46:47.331Z,2267.00
2023-05-05T07:47:47.347Z,2602.00
2023-05-05T07:48:47.376Z,2415.00
2023-05-05T07:49:47.311Z,2706.00
2023-05-05T07:50:47.305Z,2817.00
2023-05-05T07:51:47.301Z,2589.00
2023-05-05T07:52:51.804Z,2809.00
2023-05-05T07:53:47.267Z,2975.00
2023-05-05T07:54:47.259Z,3086.00
2023-05-05T07:55:47.238Z,3207.00
2023-05-05T07:56:47.219Z,3272.00
2023-05-05T07:57:47.232Z,3305.00
2023-05-05T07:58:47.195Z,3288.00
2023-05-05T07:59:47.212Z,3355.00
2023-05-05T08:00:47.170Z,3519.00
2023-05-05T08:01:47.161Z,3554.00
2023-05-05T08:02:47.305Z,3629.00
2023-05-05T08:03:47.202Z,3614.00
2023-05-05T08:04:47.178Z,3851.00
2023-05-05T08:05:47.130Z,3799.00
2023-05-05T08:06:47.124Z,4046.00
2023-05-05T08:07:47.120Z,3992.00
2023-05-05T08:08:47.102Z,3942.00
2023-05-05T08:09:47.157Z,4234.00
2023-05-05T08:10:47.068Z,4240.00
2023-05-05T08:11:47.066Z,4317.00
2023-05-05T08:12:47.082Z,4369.00
2023-05-05T08:13:47.059Z,4625.00
2023-05-05T08:14:47.043Z,4339.00
2023-05-05T08:15:47.086Z,4393.00
2023-05-05T08:16:47.009Z,4902.00
2023-05-05T08:17:47.086Z,4201.00
2023-05-05T08:18:46.977Z,4770.00
2023-05-05T08:19:46.994Z,4825.00
2023-05-05T08:20:46.960Z,4874.00
2023-05-05T08:21:47.110Z,5399.00
2023-05-05T08:22:47.000Z,5192.00
2023-05-05T08:23:46.929Z,5434.00
2023-05-05T08:24:46.930Z,5347.00
2023-05-05T08:25:46.919Z,5723.00
2023-05-05T08:26:46.944Z,5860.00
2023-05-05T08:27:47.009Z,5533.00
2023-05-05T08:28:46.870Z,6418.00
2023-05-05T08:29:46.887Z,4536.00
2023-05-05T08:30:46.863Z,4748.00
2023-05-05T08:31:46.925Z,3829.00
2023-05-05T08:32:46.935Z,11586.00
2023-05-05T08:33:46.826Z,10467.00
2023-05-05T08:34:46.822Z,24510.00
2023-05-05T08:35:46.866Z,19597.00
2023-05-05T08:36:46.800Z,20261.00
2023-05-05T08:37:46.816Z,29299.00
2023-05-05T08:38:46.804Z,29281.00
2023-05-05T08:39:46.763Z,39257.00
2023-05-05T08:40:46.761Z,28163.00
2023-05-05T08:41:46.753Z,10247.00
2023-05-05T08:42:46.770Z,21518.00
2023-05-05T08:43:46.733Z,15796.00
2023-05-05T08:44:46.731Z,14725.00
2023-05-05T08:45:46.708Z,12536.00
2023-05-05T08:46:46.730Z,11767.00
2023-05-05T08:47:47.105Z,11199.00
2023-05-05T08:48:46.681Z,4346.00
2023-05-05T08:49:46.733Z,17900.00
2023-05-05T08:50:46.674Z,14744.00
2023-05-05T08:51:46.681Z,24546.00
2023-05-05T08:52:48.091Z,14209.00
2023-05-05T08:53:46.614Z,24300.00
2023-05-05T08:54:46.605Z,3228.00
2023-05-05T08:55:46.594Z,18689.00
2023-05-05T08:56:46.595Z,8171.00
2023-05-05T08:57:46.601Z,4880.00
2023-05-05T08:58:46.556Z,4534.00
2023-05-05T08:59:46.558Z,3614.00
2023-05-05T09:00:46.639Z,9407.00
2023-05-05T09:01:46.560Z,2295.00
2023-05-05T09:02:46.699Z,13203.00
2023-05-05T09:03:46.516Z,7935.00
2023-05-05T09:04:46.505Z,11422.00
2023-05-05T09:05:46.512Z,8453.00
2023-05-05T09:06:46.481Z,6333.00
2023-05-05T09:07:46.459Z,2845.00
2023-05-05T09:08:46.466Z,8109.00
2023-05-05T09:09:46.460Z,6036.00
2023-05-05T09:10:46.438Z,2375.00
2023-05-05T09:11:46.441Z,8152.00
2023-05-05T09:12:46.448Z,11220.00
2023-05-05T09:13:46.428Z,3958.00
2023-05-05T09:14:46.398Z,1973.00
2023-05-05T09:15:46.392Z,2814.00
2023-05-05T09:16:46.418Z,8606.00
2023-05-05T09:17:46.387Z,10161.00
2023-05-05T09:18:46.402Z,16299.00
2023-05-05T09:19:46.336Z,3121.00
2023-05-05T09:20:46.334Z,22007.00
2023-05-05T09:21:46.357Z,3363.00
2023-05-05T09:22:46.349Z,9155.00
2023-05-05T09:23:46.304Z,26650.00
2023-05-05T09:24:46.352Z,4350.00
2023-05-05T09:25:46.319Z,28418.00
2023-05-05T09:26:46.272Z,12662.00
2023-05-05T09:27:46.297Z,11531.00
2023-05-05T09:28:46.241Z,4085.00
2023-05-05T09:29:46.280Z,18723.00
2023-05-05T09:30:46.253Z,26133.00
2023-05-05T09:31:46.544Z,29742.00
2023-05-05T09:32:46.240Z,19853.00
2023-05-05T09:33:46.237Z,11944.00
2023-05-05T09:34:46.181Z,26502.00
2023-05-05T09:35:46.205Z,29765.00
2023-05-05T09:36:46.183Z,15923.00
2023-05-05T09:37:46.207Z,21612.00
2023-05-05T09:38:46.209Z,21774.00
2023-05-05T09:39:46.135Z,17572.00
2023-05-05T09:40:46.130Z,21682.00
2023-05-05T09:41:46.138Z,13251.00
2023-05-05T09:42:46.126Z,70537.00
2023-05-05T09:43:46.095Z,25799.00
2023-05-05T09:44:46.093Z,26210.00
2023-05-05T09:45:46.073Z,23372.00
2023-05-05T09:46:46.154Z,7494.00
2023-05-05T09:47:46.130Z,27909.00
2023-05-05T09:48:46.104Z,6048.00
2023-05-05T09:49:46.068Z,24381.00
2023-05-05T09:50:46.018Z,4280.00
2023-05-05T09:51:46.030Z,21293.00
2023-05-05T09:52:46.706Z,7794.00
2023-05-05T09:53:46.169Z,3732.00
2023-05-05T09:54:46.025Z,18827.00
2023-05-05T09:55:46.004Z,8087.00
2023-05-05T09:56:45.973Z,13724.00
2023-05-05T09:57:46.037Z,15757.00
2023-05-05T09:58:45.948Z,16050.00
2023-05-05T09:59:46.474Z,7094.00
2023-05-05T10:00:45.959Z,9985.00
2023-05-05T10:01:45.985Z,6410.00
2023-05-05T10:02:45.904Z,12682.00
2023-05-05T10:03:45.899Z,5339.00
2023-05-05T10:04:45.937Z,4544.00
2023-05-05T10:05:45.911Z,2412.00
2023-05-05T10:06:45.906Z,12155.00
2023-05-05T10:07:45.881Z,2610.00
2023-05-05T10:08:45.831Z,10899.00
2023-05-05T10:09:45.823Z,11301.00
2023-05-05T10:10:45.829Z,11799.00
2023-05-05T10:11:45.843Z,7139.00
2023-05-05T10:12:45.814Z,6090.00
2023-05-05T10:13:45.824Z,4562.00
2023-05-05T10:14:45.788Z,7600.00
2023-05-05T10:15:45.806Z,6509.00
2023-05-05T10:16:45.917Z,6246.00
2023-05-05T10:17:57.798Z,6091.00
2023-05-05T10:18:45.734Z,3153.00
2023-05-05T10:19:45.743Z,11148.00
2023-05-05T10:20:45.842Z,12056.00
2023-05-05T10:21:45.721Z,11199.00
2023-05-05T10:22:45.723Z,18091.00
2023-05-05T10:23:45.676Z,8954.00
2023-05-05T10:24:45.668Z,7588.00
2023-05-05T10:25:45.708Z,8992.00
2023-05-05T10:26:45.715Z,7623.00
2023-05-05T10:27:45.679Z,7880.00
2023-05-05T10:28:45.634Z,8333.00
2023-05-05T10:29:45.662Z,5262.00
2023-05-05T10:30:45.650Z,5283.00
2023-05-05T10:31:45.613Z,11008.00
2023-05-05T10:32:59.874Z,9075.00
2023-05-05T10:33:45.665Z,7421.00
2023-05-05T10:34:45.578Z,6945.00
2023-05-05T10:35:45.563Z,10767.00
2023-05-05T10:36:45.539Z,9114.00
2023-05-05T10:37:45.589Z,9199.00
2023-05-05T10:38:45.532Z,5578.00
2023-05-05T10:39:45.539Z,4858.00
2023-05-05T10:40:45.521Z,3860.00
2023-05-05T10:41:45.497Z,2530.00
2023-05-05T10:42:45.514Z,3476.00
2023-05-05T10:43:45.495Z,15701.00
2023-05-05T10:44:45.497Z,3412.00
2023-05-05T10:45:45.510Z,22207.00
2023-05-05T10:46:45.573Z,6038.00
2023-05-05T10:47:45.516Z,25295.00
2023-05-05T10:48:45.460Z,13279.00
2023-05-05T10:49:45.405Z,2664.00
2023-05-05T10:50:45.447Z,11419.00
2023-05-05T10:51:45.414Z,12024.00
2023-05-05T10:52:45.427Z,2154.00
2023-05-05T10:53:45.437Z,4022.00
2023-05-05T10:54:45.376Z,25162.00
2023-05-05T10:55:45.384Z,17522.00
2023-05-05T10:56:45.345Z,7253.00
2023-05-05T10:57:45.380Z,17777.00
2023-05-05T10:58:59.244Z,10993.00
2023-05-05T10:59:45.317Z,5515.00
2023-05-05T11:00:45.320Z,2368.00
2023-05-05T11:01:45.310Z,7300.00
2023-05-05T11:02:45.302Z,8231.00
2023-05-05T11:03:45.299Z,2792.00
2023-05-05T11:04:45.304Z,21707.00
2023-05-05T11:05:45.257Z,14348.00
2023-05-05T11:06:45.283Z,12925.00
2023-05-05T11:07:45.254Z,2616.00
2023-05-05T11:08:45.212Z,11667.00
2023-05-05T11:09:45.242Z,4578.00
2023-05-05T11:10:45.250Z,2535.00
2023-05-05T11:11:45.192Z,14726.00
2023-05-05T11:12:45.191Z,2229.00
2023-05-05T11:13:45.172Z,8803.00
2023-05-05T11:14:45.244Z,12747.00
2023-05-05T11:15:45.137Z,3024.00
2023-05-05T11:16:45.212Z,12551.00
2023-05-05T11:17:45.139Z,20089.00
2023-05-05T11:18:45.116Z,9190.00
2023-05-05T11:19:45.099Z,2986.00
2023-05-05T11:20:45.124Z,14364.00
2023-05-05T11:21:45.117Z,2170.00
2023-05-05T11:22:45.091Z,7269.00
2023-05-05T11:23:45.081Z,4197.00
2023-05-05T11:24:45.053Z,15581.00
2023-05-05T11:25:45.041Z,69135.00
2023-05-05T11:26:45.059Z,23150.00
2023-05-05T11:27:45.019Z,6975.00
2023-05-05T11:28:45.016Z,12561.00
2023-05-05T11:29:44.990Z,3381.00
2023-05-05T11:30:45.043Z,17559.00
2023-05-05T11:31:44.964Z,12138.00
2023-05-05T11:32:45.051Z,12200.00
2023-05-05T11:33:44.958Z,21963.00
2023-05-05T11:34:44.966Z,12577.00
2023-05-05T11:35:44.960Z,10953.00
2023-05-05T11:36:44.946Z,6206.00
2023-05-05T11:37:44.934Z,8811.00
2023-05-05T11:38:44.907Z,11540.00
2023-05-05T11:39:44.906Z,5478.00
2023-05-05T11:40:44.927Z,20718.00
2023-05-05T11:41:44.888Z,14047.00
2023-05-05T11:42:44.858Z,6846.00
2023-05-05T11:43:44.849Z,15971.00
2023-05-05T11:44:44.918Z,16137.00
2023-05-05T11:45:45.011Z,10155.00
2023-05-05T11:46:44.927Z,5449.00
2023-05-05T11:47:44.807Z,4981.00
2023-05-05T11:48:44.824Z,4206.00
2023-05-05T11:49:44.831Z,4577.00
2023-05-05T11:50:44.774Z,6490.00
2023-05-05T11:51:44.778Z,7528.00
2023-05-05T11:52:44.753Z,5753.00
2023-05-05T11:53:44.747Z,12458.00
2023-05-05T11:54:44.774Z,7637.00
2023-05-05T11:55:44.726Z,7676.00
2023-05-05T11:56:44.713Z,9576.00
2023-05-05T11:57:44.704Z,13452.00
2023-05-05T11:58:44.731Z,10012.00
2023-05-05T11:59:44.731Z,12041.00
2023-05-05T12:00:44.695Z,9605.00
2023-05-05T12:01:44.668Z,6740.00
2023-05-05T12:02:44.731Z,11920.00
2023-05-05T12:03:44.797Z,3755.00
2023-05-05T12:04:44.684Z,12443.00
2023-05-05T12:05:44.650Z,18657.00
2023-05-05T12:06:44.617Z,7645.00
2023-05-05T12:07:44.612Z,6092.00
2023-05-05T12:08:44.592Z,10000.00
2023-05-05T12:09:44.572Z,7799.00
2023-05-05T12:10:44.618Z,13384.00
2023-05-05T12:11:44.619Z,11788.00
2023-05-05T12:12:44.575Z,8998.00
2023-05-05T12:13:44.550Z,7343.00
2023-05-05T12:14:44.556Z,20167.00
2023-05-05T12:15:44.547Z,4099.00
2023-05-05T12:16:44.555Z,16910.00
2023-05-05T12:17:44.527Z,13173.00
2023-05-05T12:18:44.501Z,71206.00
2023-05-05T12:19:44.495Z,29542.00
2023-05-05T12:20:44.514Z,5522.00
2023-05-05T12:21:44.464Z,70646.00
2023-05-05T12:22:44.504Z,25605.00
2023-05-05T12:23:44.495Z,26522.00
2023-05-05T12:24:44.428Z,18056.00
2023-05-05T12:25:44.411Z,23775.00